createdAt,value
2016-09-05T00:00:05.984Z,61.6
2016-09-05T00:10:05.984Z,61.6
2016-09-05T00:20:06.015Z,61.6
2016-09-05T00:30:06.041Z,61.6
2016-09-05T00:40:05.985Z,61.6
2016-09-05T00:50:05.984Z,61.6
2016-09-05T01:00:05.984Z,61.6
2016-09-05T01:10:05.997Z,61.1
2016-09-05T01:20:05.994Z,61.6
2016-09-05T01:30:06.013Z,61.1
2016-09-05T01:40:06.055Z,60.5
2016-09-05T01:50:05.992Z,61.1
2016-09-05T02:00:06.056Z,61.1
2016-09-05T02:10:06.023Z,60.5
2016-09-05T02:20:06.020Z,61.1
2016-09-05T02:30:05.989Z,61.1
2016-09-05T02:40:05.983Z,60.5
2016-09-05T02:50:06.022Z,61.6
2016-09-05T03:00:06.017Z,60.5
2016-09-05T03:10:05.985Z,61.1
2016-09-05T03:20:06.023Z,61.6
2016-09-05T03:30:06.024Z,61.1
2016-09-05T03:40:06.024Z,61.1
2016-09-05T03:50:06.017Z,60.5
2016-09-05T04:00:06.023Z,60.5
2016-09-05T04:10:06.023Z,61.1
2016-09-05T04:20:05.984Z,61.1
2016-09-05T04:30:06.019Z,61.1
2016-09-05T04:40:06.007Z,61.6
2016-09-05T04:50:05.984Z,60.5
2016-09-05T05:00:05.947Z,61.6
2016-09-05T05:10:05.993Z,61.1
2016-09-05T05:20:06.022Z,61.1
2016-09-05T05:30:05.984Z,61.6
2016-09-05T05:40:05.984Z,60.5
2016-09-05T05:50:05.984Z,61.6
2016-09-05T06:00:06.012Z,61.1
2016-09-05T06:10:06.025Z,61.6
2016-09-05T06:20:05.989Z,61.6
2016-09-05T06:30:06.011Z,61.6
2016-09-05T06:40:06.017Z,62.1
2016-09-05T06:50:06.020Z,61.6
2016-09-05T07:00:06.014Z,61.6
2016-09-05T07:10:06.019Z,61.6
2016-09-05T07:20:05.992Z,61.6
2016-09-05T07:30:06.016Z,62.7
2016-09-05T07:40:05.998Z,62.7
2016-09-05T07:50:06.013Z,62.7
2016-09-05T08:00:06.056Z,63.8
2016-09-05T08:10:05.982Z,63.8
2016-09-05T08:20:06.045Z,64.3
2016-09-05T08:30:06.020Z,64.8
2016-09-05T08:40:06.018Z,64.8
2016-09-05T08:50:03.304Z,64.8
2016-09-05T09:00:05.984Z,64.8
2016-09-05T09:10:06.020Z,64.8
2016-09-05T09:20:06.014Z,65.4
2016-09-05T09:30:05.983Z,64.8
2016-09-05T09:40:05.995Z,64.8
2016-09-05T09:50:06.019Z,65.4
2016-09-05T10:00:06.054Z,65.4
2016-09-05T10:10:03.164Z,67
2016-09-05T10:20:05.981Z,68.6
2016-09-05T10:30:06.013Z,69.1
2016-09-05T10:40:06.012Z,70.8
2016-09-05T10:50:06.045Z,71.3
2016-09-05T11:00:06.045Z,71.3
2016-09-05T11:10:06.026Z,71.3
2016-09-05T11:20:05.988Z,70.2
2016-09-05T11:30:05.995Z,70.2
2016-09-05T11:40:05.994Z,70.2
2016-09-05T11:50:06.016Z,69.1
2016-09-05T12:00:06.055Z,69.1
2016-09-05T12:10:04.343Z,69.1
2016-09-05T12:20:06.024Z,69.1
2016-09-05T12:30:05.984Z,68.6
2016-09-05T12:40:06.022Z,68.6
2016-09-05T12:50:06.018Z,68.1
2016-09-05T13:00:05.992Z,68.1
2016-09-05T13:10:06.033Z,68.1
2016-09-05T13:20:05.985Z,67
2016-09-05T13:30:05.224Z,67.5
2016-09-05T13:40:05.994Z,68.1
2016-09-05T13:50:05.989Z,68.1
2016-09-05T14:00:06.023Z,67
2016-09-05T14:10:01.175Z,67.5
2016-09-05T14:20:06.048Z,67.5
2016-09-05T14:30:06.026Z,67.5
2016-09-05T14:40:05.997Z,67
2016-09-05T14:50:05.988Z,67
2016-09-05T15:00:05.989Z,67.5
2016-09-05T15:10:05.994Z,68.1
2016-09-05T15:20:06.067Z,68.1
2016-09-05T15:30:05.987Z,68.1
2016-09-05T15:40:05.987Z,67.5
2016-09-05T15:50:05.992Z,67
2016-09-05T16:00:06.024Z,68.1
2016-09-05T16:10:06.028Z,67
2016-09-05T16:20:06.021Z,67
2016-09-05T16:30:06.030Z,67.5
2016-09-05T16:40:05.992Z,67.5
2016-09-05T16:50:06.045Z,67
2016-09-05T17:00:06.024Z,66.4
2016-09-05T17:10:05.990Z,66.4
2016-09-05T17:20:06.006Z,65.9
2016-09-05T17:30:06.050Z,66.4
2016-09-05T17:40:06.044Z,66.4
2016-09-05T17:50:06.142Z,65.9
2016-09-05T18:00:06.159Z,65.9
2016-09-05T18:10:06.099Z,65.9
2016-09-05T18:20:06.155Z,65.9
2016-09-05T18:30:06.247Z,65.4
2016-09-05T18:40:06.160Z,65.4
2016-09-05T18:50:06.238Z,65.4
2016-09-05T19:00:06.321Z,64.8
2016-09-05T19:10:06.251Z,64.8
2016-09-05T19:20:06.242Z,65.4
2016-09-05T19:30:06.283Z,64.8
2016-09-05T19:40:06.252Z,64.8
2016-09-05T19:50:06.334Z,64.8
2016-09-05T20:00:06.264Z,64.8
2016-09-05T20:10:06.308Z,64.3
2016-09-05T20:20:06.151Z,64.8
2016-09-05T20:30:06.081Z,63.8
2016-09-05T20:40:06.039Z,64.8
2016-09-05T20:50:06.046Z,64.3
2016-09-05T21:00:06.058Z,63.8
2016-09-05T21:10:06.035Z,64.3
2016-09-05T21:20:03.088Z,63.8
2016-09-05T21:30:06.055Z,64.3
2016-09-05T21:40:06.023Z,63.8
2016-09-05T21:50:06.018Z,63.8
2016-09-05T22:00:05.996Z,63.8
2016-09-05T22:10:06.040Z,63.8
2016-09-05T22:20:06.000Z,62.7
2016-09-05T22:30:06.037Z,63.2
2016-09-05T22:40:03.077Z,63.2
2016-09-05T22:50:06.057Z,62.7
2016-09-05T23:00:06.011Z,63.2
2016-09-05T23:10:05.957Z,63.8
2016-09-05T23:20:06.051Z,62.7
2016-09-05T23:30:05.985Z,63.2
2016-09-05T23:40:05.985Z,62.7
2016-09-05T23:50:05.985Z,62.7
